createdAt,value
2019-04-04T00:01:03.262Z,99.40
2019-04-04T00:03:33.808Z,99.60
2019-04-04T00:06:04.204Z,99.70
2019-04-04T00:08:34.626Z,99.60
2019-04-04T00:11:06.089Z,99.50
2019-04-04T00:13:37.065Z,99.40
2019-04-04T00:16:07.506Z,99.50
2019-04-04T00:18:37.930Z,99.40
2019-04-04T00:21:08.370Z,99.60
2019-04-04T00:23:38.805Z,99.70
2019-04-04T00:26:10.918Z,99.70
2019-04-04T00:28:41.349Z,99.70
2019-04-04T00:31:11.791Z,99.70
2019-04-04T00:33:42.211Z,99.70
2019-04-04T00:36:12.623Z,99.70
2019-04-04T00:38:43.052Z,99.50
2019-04-04T00:41:13.628Z,99.40
2019-04-04T00:43:44.077Z,99.40
2019-04-04T00:46:14.480Z,99.30
2019-04-04T00:48:44.896Z,99.30
2019-04-04T00:51:15.313Z,99.40
2019-04-04T00:53:45.747Z,99.50
2019-04-04T00:56:18.085Z,99.40
2019-04-04T00:58:51.760Z,99.40
2019-04-04T01:01:20.424Z,99.40
2019-04-04T01:03:50.855Z,99.50
2019-04-04T01:06:21.256Z,99.60
2019-04-04T01:08:51.692Z,99.70
2019-04-04T01:11:22.189Z,99.60
2019-04-04T01:13:52.580Z,99.70
2019-04-04T01:16:23.015Z,99.90
2019-04-04T01:18:53.395Z,99.60
2019-04-04T01:21:23.858Z,99.70
2019-04-04T01:23:54.247Z,99.80
2019-04-04T01:26:24.682Z,99.90
2019-04-04T01:28:55.104Z,99.90
2019-04-04T01:31:25.519Z,99.90
2019-04-04T01:33:55.955Z,99.90
2019-04-04T01:36:26.381Z,99.90
2019-04-04T01:38:58.132Z,99.80
2019-04-04T01:41:29.046Z,99.90
2019-04-04T01:44:04.947Z,99.90
2019-04-04T01:46:31.856Z,99.90
2019-04-04T01:49:02.348Z,99.90
2019-04-04T01:51:32.830Z,99.90
2019-04-04T01:54:03.350Z,99.90
2019-04-04T01:56:36.728Z,99.90
2019-04-04T01:59:05.984Z,99.90
2019-04-04T02:01:36.406Z,99.90
2019-04-04T02:04:06.979Z,99.90
2019-04-04T02:06:37.417Z,99.90
2019-04-04T02:09:08.818Z,99.90
2019-04-04T02:11:39.313Z,99.90
2019-04-04T02:14:09.916Z,99.90
2019-04-04T02:16:41.888Z,99.80
2019-04-04T02:19:12.310Z,99.70
2019-04-04T02:21:42.756Z,99.70
2019-04-04T02:24:13.181Z,99.60
2019-04-04T02:26:43.720Z,99.70
2019-04-04T02:29:14.124Z,99.50
2019-04-04T02:31:48.016Z,99.70
2019-04-04T02:34:18.400Z,99.70
2019-04-04T02:36:49.863Z,99.60
2019-04-04T02:39:22.117Z,99.70
2019-04-04T02:41:52.560Z,99.70
2019-04-04T02:44:22.950Z,99.70
2019-04-04T02:46:53.401Z,99.70
2019-04-04T02:49:28.085Z,99.70
2019-04-04T02:51:55.978Z,99.70
2019-04-04T02:54:26.369Z,99.70
2019-04-04T02:56:56.818Z,99.70
2019-04-04T02:59:27.238Z,99.50
2019-04-04T03:01:57.740Z,99.50
2019-04-04T03:04:28.181Z,99.50
2019-04-04T03:06:58.855Z,99.40
2019-04-04T03:09:29.233Z,99.50
2019-04-04T03:11:59.728Z,99.50
2019-04-04T03:14:30.143Z,99.50
2019-04-04T03:17:00.694Z,99.50
2019-04-04T03:19:31.123Z,99.50
2019-04-04T03:22:01.586Z,99.60
2019-04-04T03:24:32.034Z,99.70
2019-04-04T03:27:02.584Z,99.80
2019-04-04T03:29:37.333Z,99.80
2019-04-04T03:32:05.221Z,99.70
2019-04-04T03:34:35.651Z,99.90
2019-04-04T03:37:07.263Z,99.90
2019-04-04T03:39:38.192Z,99.90
2019-04-04T03:42:08.678Z,99.90
2019-04-04T03:44:39.089Z,99.90
2019-04-04T03:47:10.394Z,99.90
2019-04-04T03:49:41.823Z,99.90
2019-04-04T03:52:12.281Z,99.90
2019-04-04T03:54:42.694Z,99.80
2019-04-04T03:57:13.154Z,99.70
2019-04-04T03:59:43.593Z,99.80
2019-04-04T04:02:17.934Z,99.70
2019-04-04T04:04:46.249Z,99.80
2019-04-04T04:07:16.723Z,99.80
2019-04-04T04:09:47.301Z,99.90
2019-04-04T04:12:17.746Z,99.80
2019-04-04T04:14:48.269Z,99.80
2019-04-04T04:17:18.813Z,99.80
2019-04-04T04:19:49.389Z,99.80
2019-04-04T04:22:19.968Z,99.60
2019-04-04T04:24:50.638Z,99.90
2019-04-04T04:27:21.084Z,99.70
2019-04-04T04:29:51.872Z,99.70
2019-04-04T04:32:22.814Z,99.60
2019-04-04T04:34:53.370Z,99.70
2019-04-04T04:37:23.899Z,99.70
2019-04-04T04:39:54.327Z,99.90
2019-04-04T04:42:26.646Z,99.80
2019-04-04T04:44:56.951Z,99.90
2019-04-04T04:47:27.371Z,99.70
2019-04-04T04:49:57.852Z,99.70
2019-04-04T04:52:28.291Z,99.60
2019-04-04T04:54:58.728Z,99.70
2019-04-04T04:57:30.358Z,99.70
2019-04-04T05:00:00.943Z,99.60
2019-04-04T05:02:31.498Z,99.70
2019-04-04T05:05:01.896Z,99.70
2019-04-04T05:07:32.444Z,99.70
2019-04-04T05:10:02.855Z,99.60
2019-04-04T05:12:33.393Z,99.40
2019-04-04T05:15:04.046Z,99.30
2019-04-04T05:17:34.460Z,99.30
2019-04-04T05:20:05.993Z,99.40
2019-04-04T05:22:39.715Z,99.40
2019-04-04T05:25:09.146Z,99.70
2019-04-04T05:27:39.648Z,99.30
2019-04-04T05:30:10.043Z,99.20
2019-04-04T05:32:40.623Z,99.30
2019-04-04T05:35:11.167Z,99.40
2019-04-04T05:37:41.541Z,99.40
2019-04-04T05:40:12.488Z,99.50
2019-04-04T05:42:42.895Z,99.40
2019-04-04T05:45:14.359Z,99.60
2019-04-04T05:47:45.444Z,99.70
2019-04-04T05:50:16.546Z,99.80
2019-04-04T05:52:46.955Z,99.90
2019-04-04T05:55:17.384Z,99.90
2019-04-04T05:57:48.946Z,99.90
2019-04-04T06:00:20.048Z,99.90
2019-04-04T06:02:50.412Z,99.90
2019-04-04T06:05:20.980Z,99.90
2019-04-04T06:07:51.343Z,99.90
2019-04-04T06:10:21.793Z,99.90
2019-04-04T06:12:52.197Z,99.90
2019-04-04T06:15:23.436Z,99.90
2019-04-04T06:17:53.872Z,99.90
2019-04-04T06:20:24.299Z,99.90
2019-04-04T06:22:54.757Z,99.90
2019-04-04T06:25:25.181Z,99.90
2019-04-04T06:27:55.602Z,99.90
2019-04-04T06:30:26.136Z,99.90
2019-04-04T06:32:56.619Z,99.90
2019-04-04T06:35:27.042Z,99.90
2019-04-04T06:37:57.471Z,99.90
2019-04-04T06:40:28.123Z,99.90
2019-04-04T06:43:00.133Z,99.90
2019-04-04T06:45:32.372Z,99.90
2019-04-04T06:48:02.823Z,99.90
2019-04-04T06:50:33.341Z,99.90
2019-04-04T06:53:03.805Z,99.90
2019-04-04T06:55:39.760Z,99.90
2019-04-04T06:58:09.298Z,99.90
2019-04-04T07:00:38.558Z,99.90
2019-04-04T07:03:08.989Z,99.90
2019-04-04T07:05:39.391Z,99.90
2019-04-04T07:08:09.788Z,99.90
2019-04-04T07:10:40.220Z,99.90
2019-04-04T07:13:21.431Z,99.90
2019-04-04T07:15:46.890Z,99.90
2019-04-04T07:18:14.911Z,99.90
2019-04-04T07:20:48.030Z,99.90
2019-04-04T07:23:17.486Z,99.90
2019-04-04T07:25:47.944Z,99.90
2019-04-04T07:28:19.072Z,99.90
2019-04-04T07:30:50.045Z,99.90
2019-04-04T07:33:21.501Z,99.90
2019-04-04T07:35:51.990Z,99.90
2019-04-04T07:38:22.495Z,99.90
2019-04-04T07:40:52.954Z,99.90
2019-04-04T07:43:23.354Z,99.90
2019-04-04T07:45:55.245Z,99.90
2019-04-04T07:48:28.365Z,99.90
2019-04-04T07:50:58.552Z,99.90
2019-04-04T07:53:29.598Z,99.90
2019-04-04T07:56:00.103Z,99.90
2019-04-04T07:58:30.610Z,99.90
2019-04-04T08:01:01.052Z,99.90
2019-04-04T08:03:31.592Z,99.90
2019-04-04T08:06:02.006Z,99.90
2019-04-04T08:08:32.578Z,99.90
2019-04-04T08:11:02.982Z,99.90
2019-04-04T08:13:33.537Z,99.90
2019-04-04T08:16:04.144Z,99.90
2019-04-04T08:18:34.630Z,99.90
2019-04-04T08:21:05.849Z,99.90
2019-04-04T08:23:36.332Z,99.90
2019-04-04T08:26:09.848Z,99.90
2019-04-04T08:28:38.928Z,99.90
2019-04-04T08:31:09.903Z,99.90
2019-04-04T08:33:40.446Z,99.90
2019-04-04T08:36:10.843Z,99.90
2019-04-04T08:38:41.295Z,99.90
2019-04-04T08:41:11.696Z,99.90
2019-04-04T08:43:42.090Z,99.90
2019-04-04T08:46:12.540Z,99.90
2019-04-04T08:48:42.939Z,99.90
2019-04-04T08:51:13.354Z,99.90
2019-04-04T08:53:43.788Z,99.90
2019-04-04T08:56:14.199Z,99.90
2019-04-04T08:58:44.644Z,99.90
2019-04-04T09:01:15.075Z,99.90
2019-04-04T09:03:45.591Z,99.90
2019-04-04T09:06:16.039Z,99.90
2019-04-04T09:08:46.449Z,99.90
2019-04-04T09:11:16.877Z,99.90
2019-04-04T09:13:47.304Z,99.90
2019-04-04T09:16:17.748Z,99.90
2019-04-04T09:18:48.169Z,99.90
2019-04-04T09:21:18.631Z,99.90
2019-04-04T09:23:49.050Z,99.90
2019-04-04T09:26:19.460Z,99.90
2019-04-04T09:28:49.876Z,99.90
2019-04-04T09:31:20.274Z,99.90
2019-04-04T09:33:50.706Z,99.90
2019-04-04T09:36:21.157Z,99.90
2019-04-04T09:38:51.552Z,99.90
2019-04-04T09:41:21.981Z,99.90
2019-04-04T09:43:52.487Z,99.90
2019-04-04T09:46:22.934Z,99.90
2019-04-04T09:48:53.353Z,99.90
2019-04-04T09:51:23.809Z,99.90
2019-04-04T09:53:54.242Z,99.90
2019-04-04T09:56:24.645Z,99.90
2019-04-04T09:58:55.229Z,99.90
2019-04-04T10:01:25.661Z,99.90
2019-04-04T10:03:56.096Z,99.90
2019-04-04T10:06:26.534Z,99.90
2019-04-04T10:08:57.000Z,99.90
2019-04-04T10:11:27.391Z,99.90
2019-04-04T10:13:57.823Z,99.90
2019-04-04T10:16:28.268Z,99.90
2019-04-04T10:18:58.706Z,99.90
2019-04-04T10:21:29.163Z,99.90
2019-04-04T10:23:59.619Z,99.90
2019-04-04T10:26:30.101Z,99.90
2019-04-04T10:29:00.672Z,99.90
2019-04-04T10:31:31.081Z,99.90
2019-04-04T10:34:01.603Z,99.90
2019-04-04T10:36:32.056Z,99.90
2019-04-04T10:39:04.201Z,99.90
2019-04-04T10:41:34.724Z,99.90
2019-04-04T10:44:05.129Z,99.90
2019-04-04T10:46:35.565Z,99.90
2019-04-04T10:49:08.309Z,99.90
2019-04-04T10:51:38.207Z,99.90
2019-04-04T10:54:08.596Z,99.90
2019-04-04T10:56:39.062Z,99.90
2019-04-04T10:59:09.468Z,99.90
2019-04-04T11:01:39.919Z,99.90
2019-04-04T11:04:10.316Z,99.90
2019-04-04T11:06:40.750Z,99.90
2019-04-04T11:09:11.167Z,99.90
2019-04-04T11:11:41.630Z,99.90
2019-04-04T11:14:12.055Z,99.90
2019-04-04T11:16:42.458Z,99.90
2019-04-04T11:19:12.871Z,99.90
2019-04-04T11:21:43.268Z,99.90
2019-04-04T11:24:13.695Z,99.90
2019-04-04T11:26:44.169Z,99.90
2019-04-04T11:29:14.576Z,99.90
2019-04-04T11:31:45.055Z,99.90
2019-04-04T11:34:15.482Z,99.90
2019-04-04T11:36:45.947Z,99.90
2019-04-04T11:39:16.364Z,99.90
2019-04-04T11:41:46.825Z,99.90
2019-04-04T11:44:17.413Z,99.90
2019-04-04T11:46:47.828Z,99.90
2019-04-04T11:49:18.327Z,99.90
2019-04-04T11:51:48.754Z,99.90
2019-04-04T11:54:19.228Z,99.90
2019-04-04T11:56:49.657Z,99.90
2019-04-04T11:59:20.144Z,99.90
2019-04-04T12:01:50.980Z,99.90
2019-04-04T12:04:21.405Z,99.90
2019-04-04T12:06:51.859Z,99.90
2019-04-04T12:09:22.249Z,99.90
2019-04-04T12:11:52.662Z,99.90
2019-04-04T12:14:23.162Z,99.90
2019-04-04T12:16:53.589Z,99.90
2019-04-04T12:19:24.013Z,99.90
2019-04-04T12:21:54.444Z,99.90
2019-04-04T12:24:24.885Z,99.90
2019-04-04T12:26:55.335Z,99.90
2019-04-04T12:29:25.759Z,99.90
2019-04-04T12:31:56.159Z,99.90
2019-04-04T12:34:26.627Z,99.90
2019-04-04T12:36:58.813Z,99.90
2019-04-04T12:39:29.212Z,99.90
2019-04-04T12:41:59.812Z,99.90
2019-04-04T12:44:43.781Z,99.90
2019-04-04T12:47:14.206Z,99.90
2019-04-04T12:49:44.603Z,99.90
2019-04-04T12:52:15.070Z,99.90
2019-04-04T12:54:45.504Z,99.90
2019-04-04T12:57:15.913Z,99.90
2019-04-04T12:59:46.334Z,99.90
2019-04-04T13:02:17.401Z,99.90
2019-04-04T13:04:47.824Z,99.90
2019-04-04T13:07:18.328Z,99.90
2019-04-04T13:09:48.747Z,99.90
2019-04-04T13:12:19.264Z,99.90
2019-04-04T13:14:51.864Z,99.90
2019-04-04T13:17:22.317Z,99.90
2019-04-04T13:19:52.759Z,99.90
2019-04-04T13:22:25.133Z,99.90
2019-04-04T13:24:55.606Z,99.90
2019-04-04T13:27:26.101Z,99.90
2019-04-04T13:29:56.637Z,99.90
2019-04-04T13:32:27.331Z,99.90
2019-04-04T13:34:59.612Z,99.90
2019-04-04T13:37:29.911Z,99.90
2019-04-04T13:40:00.594Z,99.90
2019-04-04T13:42:31.037Z,99.90
2019-04-04T13:45:01.580Z,99.90
2019-04-04T13:47:32.026Z,99.90
2019-04-04T13:50:02.603Z,99.90
2019-04-04T13:52:33.039Z,99.90
2019-04-04T13:55:03.552Z,99.90
2019-04-04T13:57:34.000Z,99.90
2019-04-04T14:00:06.053Z,99.90
2019-04-04T14:02:36.483Z,99.90
2019-04-04T14:05:11.479Z,99.90
2019-04-04T14:07:43.631Z,99.90
2019-04-04T14:10:17.053Z,99.90
2019-04-04T14:12:45.895Z,99.90
2019-04-04T14:15:16.469Z,99.90
2019-04-04T14:17:46.911Z,99.90
2019-04-04T14:20:17.409Z,99.90
2019-04-04T14:22:51.078Z,99.90
2019-04-04T14:25:20.190Z,99.90
2019-04-04T14:27:50.581Z,99.90
2019-04-04T14:30:22.404Z,99.90
2019-04-04T14:33:21.099Z,99.90
2019-04-04T14:35:51.544Z,99.90
2019-04-04T14:38:23.972Z,99.90
2019-04-04T14:40:54.418Z,99.90
2019-04-04T14:43:25.909Z,99.90
2019-04-04T14:45:56.570Z,99.90
2019-04-04T14:48:27.028Z,99.90
2019-04-04T14:50:57.518Z,99.90
2019-04-04T14:53:27.977Z,99.90
2019-04-04T14:55:58.394Z,99.90
2019-04-04T14:58:30.670Z,99.90
2019-04-04T15:01:01.057Z,99.90
2019-04-04T15:03:31.624Z,99.90
2019-04-04T15:06:02.139Z,99.90
2019-04-04T15:08:32.641Z,99.90
2019-04-04T15:11:03.419Z,99.90
2019-04-04T15:13:33.843Z,99.90
2019-04-04T15:16:17.614Z,99.90
2019-04-04T15:18:48.472Z,99.90
2019-04-04T15:21:19.254Z,99.90
2019-04-04T15:24:00.997Z,99.90
2019-04-04T15:26:31.601Z,99.90
2019-04-04T15:29:02.010Z,99.90
2019-04-04T15:31:34.714Z,99.90
2019-04-04T15:34:05.279Z,99.90
2019-04-04T15:36:35.714Z,99.90
2019-04-04T15:39:07.529Z,99.90
2019-04-04T15:41:38.227Z,99.90
2019-04-04T15:44:08.633Z,99.90
2019-04-04T15:46:39.085Z,99.90
2019-04-04T15:49:09.539Z,99.90
2019-04-04T15:51:39.983Z,99.90
2019-04-04T15:54:10.453Z,99.90
2019-04-04T15:56:40.934Z,99.90
2019-04-04T15:59:11.400Z,99.90
2019-04-04T16:01:41.810Z,99.90
2019-04-04T16:04:12.328Z,99.90
2019-04-04T16:06:42.902Z,99.90
2019-04-04T16:09:13.386Z,99.90
2019-04-04T16:11:49.208Z,99.90
2019-04-04T16:14:15.926Z,99.90
2019-04-04T16:16:46.415Z,99.90
2019-04-04T16:19:17.202Z,99.90
2019-04-04T16:21:47.619Z,99.90
2019-04-04T16:24:18.355Z,99.90
2019-04-04T16:26:48.792Z,99.90
2019-04-04T16:29:20.200Z,99.90
2019-04-04T16:31:50.646Z,99.90
2019-04-04T16:34:21.088Z,99.90
2019-04-04T16:36:51.573Z,99.90
2019-04-04T16:39:21.988Z,99.90
2019-04-04T16:42:02.173Z,99.90
2019-04-04T16:44:24.695Z,99.90
2019-04-04T16:46:55.165Z,99.90
2019-04-04T16:49:25.629Z,99.90
2019-04-04T16:51:56.065Z,99.90
2019-04-04T16:54:26.578Z,99.90
2019-04-04T16:56:57.023Z,99.90
2019-04-04T16:59:27.471Z,99.90
2019-04-04T17:01:57.894Z,99.90
2019-04-04T17:04:28.316Z,99.90
2019-04-04T17:06:58.802Z,99.90
2019-04-04T17:09:29.254Z,99.90
2019-04-04T17:11:59.788Z,99.90
2019-04-04T17:14:33.120Z,99.90
2019-04-04T17:17:02.660Z,99.90
2019-04-04T17:19:33.090Z,99.90
2019-04-04T17:22:03.616Z,99.90
2019-04-04T17:24:34.050Z,99.90
2019-04-04T17:27:04.475Z,99.90
2019-04-04T17:29:34.908Z,99.90
2019-04-04T17:32:05.367Z,99.90
2019-04-04T17:34:35.797Z,99.90
2019-04-04T17:37:06.711Z,99.90
2019-04-04T17:39:37.611Z,99.90
2019-04-04T17:42:08.097Z,99.90
2019-04-04T17:44:38.671Z,99.90
2019-04-04T17:47:09.104Z,99.90
2019-04-04T17:49:39.787Z,99.90
2019-04-04T17:52:10.275Z,99.90
2019-04-04T17:54:40.946Z,99.90
2019-04-04T17:57:11.831Z,99.90
2019-04-04T17:59:42.310Z,99.90
2019-04-04T18:02:12.784Z,99.90
2019-04-04T18:04:48.485Z,99.90
2019-04-04T18:07:15.374Z,99.90
2019-04-04T18:09:48.524Z,99.90
2019-04-04T18:12:19.291Z,99.90
2019-04-04T18:14:49.727Z,99.90
2019-04-04T18:17:20.207Z,99.90
2019-04-04T18:19:50.721Z,99.90
2019-04-04T18:22:21.175Z,99.90
2019-04-04T18:24:51.568Z,99.90
2019-04-04T18:27:22.045Z,99.90
2019-04-04T18:29:52.521Z,99.90
2019-04-04T18:32:23.010Z,99.90
2019-04-04T18:34:53.468Z,99.90
2019-04-04T18:37:24.265Z,99.90
2019-04-04T18:39:54.742Z,99.90
2019-04-04T18:42:25.238Z,99.90
2019-04-04T18:44:56.001Z,99.90
2019-04-04T18:47:26.750Z,99.90
2019-04-04T18:49:57.231Z,99.90
2019-04-04T18:52:27.659Z,99.90
2019-04-04T18:54:59.161Z,99.90
2019-04-04T18:57:29.629Z,99.90
2019-04-04T19:00:00.218Z,99.90
2019-04-04T19:02:33.027Z,99.90
2019-04-04T19:05:03.606Z,99.90
2019-04-04T19:07:39.440Z,99.90
2019-04-04T19:10:07.339Z,99.90
2019-04-04T19:12:37.773Z,99.90
2019-04-04T19:15:09.560Z,99.90
2019-04-04T19:17:39.973Z,99.90
2019-04-04T19:20:11.219Z,99.90
2019-04-04T19:22:41.754Z,99.90
2019-04-04T19:25:13.886Z,99.90
2019-04-04T19:27:44.391Z,99.90
2019-04-04T19:30:17.721Z,99.90
2019-04-04T19:32:48.351Z,99.90
2019-04-04T19:35:18.999Z,99.90
2019-04-04T19:37:59.553Z,99.90
2019-04-04T19:40:21.593Z,99.90
2019-04-04T19:42:52.034Z,99.90
2019-04-04T19:45:22.444Z,99.90
2019-04-04T19:47:52.847Z,99.90
2019-04-04T19:50:23.314Z,99.90
2019-04-04T19:52:53.747Z,99.90
2019-04-04T19:55:24.182Z,99.90
2019-04-04T19:57:54.599Z,99.90
2019-04-04T20:00:25.381Z,99.90
2019-04-04T20:02:55.835Z,99.90
2019-04-04T20:05:26.229Z,99.90
2019-04-04T20:07:56.637Z,99.90
2019-04-04T20:10:27.116Z,99.90
2019-04-04T20:12:57.594Z,99.90
2019-04-04T20:15:28.054Z,99.90
2019-04-04T20:17:58.546Z,99.90
2019-04-04T20:20:29.346Z,99.90
2019-04-04T20:22:59.803Z,99.90
2019-04-04T20:25:30.271Z,99.90
2019-04-04T20:28:00.821Z,99.90
2019-04-04T20:30:41.085Z,99.90
2019-04-04T20:33:11.483Z,99.90
2019-04-04T20:35:41.935Z,99.90
2019-04-04T20:38:12.338Z,99.90
2019-04-04T20:40:42.775Z,99.90
2019-04-04T20:43:13.230Z,99.90
2019-04-04T20:45:43.628Z,99.90
2019-04-04T20:48:14.248Z,99.90
2019-04-04T20:50:44.694Z,99.90
2019-04-04T20:53:15.090Z,99.90
2019-04-04T20:55:45.537Z,99.90
2019-04-04T20:58:15.999Z,99.90
2019-04-04T21:00:46.432Z,99.90
2019-04-04T21:03:16.866Z,99.90
2019-04-04T21:05:47.289Z,99.90
2019-04-04T21:08:17.708Z,99.90
2019-04-04T21:10:48.111Z,99.90
2019-04-04T21:13:18.536Z,99.90
2019-04-04T21:15:48.978Z,99.90
2019-04-04T21:18:19.423Z,99.90
2019-04-04T21:20:49.824Z,99.90
2019-04-04T21:23:20.212Z,99.90
2019-04-04T21:25:50.644Z,99.90
2019-04-04T21:28:21.090Z,99.90
2019-04-04T21:30:51.518Z,99.90
2019-04-04T21:33:22.004Z,99.90
2019-04-04T21:35:52.425Z,99.90
2019-04-04T21:38:22.816Z,99.90
2019-04-04T21:40:53.306Z,99.90
2019-04-04T21:43:23.734Z,99.90
2019-04-04T21:45:54.177Z,99.90
2019-04-04T21:48:24.587Z,99.90
2019-04-04T21:50:55.032Z,99.90
2019-04-04T21:53:25.504Z,99.90
2019-04-04T21:55:55.889Z,99.90
2019-04-04T21:58:26.373Z,99.90
2019-04-04T22:00:57.910Z,99.90
2019-04-04T22:03:28.296Z,99.90
2019-04-04T22:05:58.707Z,99.90
2019-04-04T22:08:29.155Z,99.90
2019-04-04T22:10:59.603Z,99.90
2019-04-04T22:13:29.999Z,99.90
2019-04-04T22:16:00.751Z,99.90
2019-04-04T22:18:31.161Z,99.90
2019-04-04T22:21:01.651Z,99.90
2019-04-04T22:23:32.128Z,99.90
2019-04-04T22:26:02.599Z,99.90
2019-04-04T22:28:33.011Z,99.90
2019-04-04T22:31:03.579Z,99.90
2019-04-04T22:33:34.048Z,99.90
2019-04-04T22:36:06.243Z,99.90
2019-04-04T22:38:36.699Z,99.90
2019-04-04T22:41:07.184Z,99.90
2019-04-04T22:43:37.592Z,99.90
2019-04-04T22:46:08.050Z,99.90
2019-04-04T22:48:38.441Z,99.90
2019-04-04T22:51:08.923Z,99.90
2019-04-04T22:53:39.299Z,99.90
2019-04-04T22:56:09.697Z,99.90
2019-04-04T22:58:40.101Z,99.90
2019-04-04T23:01:10.553Z,99.90
2019-04-04T23:03:40.962Z,99.90
2019-04-04T23:06:11.375Z,99.90
2019-04-04T23:08:41.817Z,99.90
2019-04-04T23:11:12.216Z,99.90
2019-04-04T23:13:42.690Z,99.90
2019-04-04T23:16:13.151Z,99.90
2019-04-04T23:18:43.599Z,99.90
2019-04-04T23:21:14.007Z,99.90
2019-04-04T23:23:44.454Z,99.90
2019-04-04T23:26:14.910Z,99.90
2019-04-04T23:28:45.316Z,99.90
2019-04-04T23:31:15.758Z,99.90
2019-04-04T23:33:46.211Z,99.90
2019-04-04T23:36:16.626Z,99.90
2019-04-04T23:38:47.069Z,99.90
2019-04-04T23:41:17.520Z,99.90
2019-04-04T23:43:47.933Z,99.90
2019-04-04T23:46:18.341Z,99.90
2019-04-04T23:48:48.790Z,99.90
2019-04-04T23:51:19.214Z,99.90
2019-04-04T23:53:49.620Z,99.90
2019-04-04T23:56:20.077Z,99.90
2019-04-04T23:58:50.508Z,99.90
